createdAt,value
2019-03-03T00:00:49.864Z,79.90
2019-03-03T00:02:22.052Z,79.90
2019-03-03T00:03:54.343Z,79.70
2019-03-03T00:05:26.627Z,79.90
2019-03-03T00:06:58.923Z,80.00
2019-03-03T00:08:31.189Z,79.90
2019-03-03T00:10:06.293Z,80.00
2019-03-03T00:11:38.622Z,80.20
2019-03-03T00:13:10.916Z,80.00
2019-03-03T00:14:43.168Z,80.30
2019-03-03T00:16:15.297Z,80.40
2019-03-03T00:17:47.615Z,80.40
2019-03-03T00:19:19.912Z,80.10
2019-03-03T00:20:52.167Z,80.10
2019-03-03T00:22:24.485Z,80.10
2019-03-03T00:23:56.596Z,80.00
2019-03-03T00:25:28.842Z,79.90
2019-03-03T00:27:01.006Z,79.70
2019-03-03T00:28:33.288Z,79.70
2019-03-03T00:30:05.825Z,79.50
2019-03-03T00:31:39.658Z,79.50
2019-03-03T00:33:12.001Z,79.40
2019-03-03T00:34:44.289Z,79.30
2019-03-03T00:36:16.522Z,79.20
2019-03-03T00:38:10.862Z,79.20
2019-03-03T00:40:01.738Z,79.20
2019-03-03T00:41:53.492Z,79.30
2019-03-03T00:43:43.917Z,79.20
2019-03-03T00:45:51.079Z,80.00
2019-03-03T00:47:37.608Z,79.90
2019-03-03T00:49:29.353Z,79.50
2019-03-03T00:51:10.303Z,79.40
2019-03-03T00:53:10.825Z,79.70
2019-03-03T00:55:20.694Z,79.60
2019-03-03T00:57:15.222Z,79.70
2019-03-03T00:59:09.647Z,79.60
2019-03-03T01:00:50.931Z,79.60
2019-03-03T01:02:35.266Z,79.60
2019-03-03T01:04:36.001Z,79.60
2019-03-03T01:06:37.063Z,79.50
2019-03-03T01:08:34.473Z,79.50
2019-03-03T01:10:23.108Z,79.90
2019-03-03T01:12:02.682Z,79.70
2019-03-03T01:13:53.214Z,80.00
2019-03-03T01:15:51.280Z,79.60
2019-03-03T01:17:31.712Z,80.40
2019-03-03T01:19:09.029Z,80.30
2019-03-03T01:20:59.532Z,80.30
2019-03-03T01:22:58.517Z,80.00
2019-03-03T01:24:56.330Z,79.70
2019-03-03T01:26:28.606Z,79.70
2019-03-03T01:28:00.882Z,80.00
2019-03-03T01:29:33.154Z,79.90
2019-03-03T01:31:05.448Z,79.70
2019-03-03T01:32:38.122Z,79.80
2019-03-03T01:34:10.381Z,79.90
2019-03-03T01:35:42.676Z,80.10
2019-03-03T01:37:14.943Z,79.90
2019-03-03T01:38:47.239Z,80.00
2019-03-03T01:40:19.550Z,79.90
2019-03-03T01:41:51.825Z,79.90
2019-03-03T01:43:24.053Z,79.90
2019-03-03T01:44:56.389Z,80.00
2019-03-03T01:46:28.717Z,80.00
2019-03-03T01:48:01.014Z,80.00
2019-03-03T01:49:33.255Z,79.80
2019-03-03T01:51:05.561Z,79.70
2019-03-03T01:52:37.894Z,79.90
2019-03-03T01:54:10.191Z,80.20
2019-03-03T01:55:42.469Z,80.90
2019-03-03T01:57:14.710Z,80.00
2019-03-03T01:58:47.054Z,80.50
2019-03-03T02:00:21.983Z,80.10
2019-03-03T02:01:54.345Z,80.50
2019-03-03T02:03:27.705Z,80.50
2019-03-03T02:04:59.890Z,80.60
2019-03-03T02:06:32.176Z,80.40
2019-03-03T02:08:04.777Z,80.70
2019-03-03T02:09:37.081Z,80.70
2019-03-03T02:11:09.381Z,80.70
2019-03-03T02:12:41.702Z,80.60
2019-03-03T02:14:13.956Z,80.70
2019-03-03T02:15:46.245Z,80.70
2019-03-03T02:17:18.540Z,80.70
2019-03-03T02:18:50.709Z,80.30
2019-03-03T02:20:22.926Z,80.50
2019-03-03T02:21:55.179Z,80.30
2019-03-03T02:23:27.433Z,80.70
2019-03-03T02:24:59.767Z,80.60
2019-03-03T02:26:32.079Z,80.20
2019-03-03T02:28:04.291Z,80.30
2019-03-03T02:29:36.563Z,80.00
2019-03-03T02:31:08.806Z,80.70
2019-03-03T02:32:41.066Z,80.30
2019-03-03T02:34:13.304Z,80.30
2019-03-03T02:35:46.115Z,80.60
2019-03-03T02:37:18.378Z,80.40
2019-03-03T02:38:50.777Z,80.60
2019-03-03T02:40:22.889Z,80.20
2019-03-03T02:41:55.159Z,80.30
2019-03-03T02:43:27.468Z,80.30
2019-03-03T02:44:59.813Z,80.20
2019-03-03T02:46:32.110Z,80.20
2019-03-03T02:48:04.405Z,80.40
2019-03-03T02:49:36.695Z,80.50
2019-03-03T02:51:08.963Z,80.70
2019-03-03T02:52:41.347Z,80.80
2019-03-03T02:54:13.732Z,80.70
2019-03-03T02:55:46.030Z,80.80
2019-03-03T02:57:18.209Z,80.70
2019-03-03T02:58:50.533Z,80.30
2019-03-03T03:00:22.865Z,80.60
2019-03-03T03:01:58.607Z,80.60
2019-03-03T03:03:30.879Z,80.60
2019-03-03T03:05:04.193Z,81.00
2019-03-03T03:06:44.317Z,80.60
2019-03-03T03:08:42.169Z,80.50
2019-03-03T03:10:20.752Z,81.00
2019-03-03T03:12:11.205Z,80.50
2019-03-03T03:13:51.237Z,80.80
2019-03-03T03:15:46.810Z,80.80
2019-03-03T03:17:41.575Z,81.30
2019-03-03T03:19:22.921Z,80.60
2019-03-03T03:21:07.722Z,80.70
2019-03-03T03:22:56.679Z,80.70
2019-03-03T03:24:50.975Z,80.90
2019-03-03T03:26:45.016Z,80.60
2019-03-03T03:28:34.778Z,80.50
2019-03-03T03:30:29.435Z,80.50
2019-03-03T03:32:36.466Z,80.50
2019-03-03T03:34:15.929Z,80.40
2019-03-03T03:36:10.825Z,81.30
2019-03-03T03:37:52.593Z,81.10
2019-03-03T03:39:45.537Z,80.90
2019-03-03T03:41:43.257Z,80.70
2019-03-03T03:43:40.667Z,81.00
2019-03-03T03:45:20.658Z,80.70
2019-03-03T03:47:10.790Z,81.00
2019-03-03T03:48:53.896Z,81.20
2019-03-03T03:50:39.890Z,80.80
2019-03-03T03:52:28.169Z,80.90
2019-03-03T03:54:38.654Z,81.30
2019-03-03T03:56:29.350Z,81.30
2019-03-03T03:58:19.625Z,80.90
2019-03-03T04:00:16.946Z,80.70
2019-03-03T04:02:11.678Z,81.20
2019-03-03T04:04:02.210Z,81.00
2019-03-03T04:05:42.939Z,81.20
2019-03-03T04:07:37.216Z,81.20
2019-03-03T04:09:20.142Z,80.90
2019-03-03T04:11:14.754Z,80.60
2019-03-03T04:13:06.502Z,80.70
2019-03-03T04:14:58.649Z,81.40
2019-03-03T04:16:49.431Z,80.60
2019-03-03T04:18:33.677Z,80.80
2019-03-03T04:20:18.487Z,80.60
2019-03-03T04:22:08.873Z,80.80
2019-03-03T04:24:09.384Z,80.70
2019-03-03T04:25:59.612Z,80.70
2019-03-03T04:27:45.629Z,80.90
2019-03-03T04:29:36.207Z,80.70
2019-03-03T04:31:42.797Z,81.20
2019-03-03T04:33:36.754Z,81.00
2019-03-03T04:35:19.777Z,81.20
2019-03-03T04:37:26.682Z,80.70
2019-03-03T04:39:21.461Z,80.90
2019-03-03T04:41:11.987Z,80.90
2019-03-03T04:42:57.938Z,80.70
2019-03-03T04:44:49.719Z,80.70
2019-03-03T04:46:50.822Z,80.40
2019-03-03T04:48:54.622Z,80.40
2019-03-03T04:50:46.380Z,80.10
2019-03-03T04:52:53.027Z,80.00
2019-03-03T04:54:35.640Z,80.00
2019-03-03T04:56:26.093Z,79.90
2019-03-03T04:58:15.339Z,79.90
2019-03-03T05:00:05.742Z,79.90
2019-03-03T05:01:57.566Z,79.70
2019-03-03T05:03:42.400Z,79.80
2019-03-03T05:05:34.297Z,79.70
2019-03-03T05:07:13.704Z,79.60
2019-03-03T05:08:56.560Z,79.50
2019-03-03T05:10:38.525Z,79.40
2019-03-03T05:12:46.452Z,79.20
2019-03-03T05:14:24.934Z,79.20
2019-03-03T05:16:16.753Z,79.00
2019-03-03T05:17:54.414Z,78.90
2019-03-03T05:19:36.855Z,78.90
2019-03-03T05:21:09.151Z,78.80
2019-03-03T05:22:41.448Z,78.80
2019-03-03T05:24:13.699Z,78.90
2019-03-03T05:25:45.986Z,78.80
2019-03-03T05:27:18.206Z,78.60
2019-03-03T05:28:50.464Z,78.60
2019-03-03T05:30:22.721Z,78.60
2019-03-03T05:31:55.061Z,78.60
2019-03-03T05:33:27.365Z,78.60
2019-03-03T05:34:59.620Z,78.50
2019-03-03T05:36:31.921Z,78.50
2019-03-03T05:38:04.220Z,78.50
2019-03-03T05:39:36.546Z,78.50
2019-03-03T05:41:08.809Z,78.40
2019-03-03T05:42:41.100Z,78.40
2019-03-03T05:44:13.374Z,78.40
2019-03-03T05:45:45.654Z,78.50
2019-03-03T05:47:17.947Z,78.70
2019-03-03T05:48:50.201Z,78.70
2019-03-03T05:50:22.466Z,78.60
2019-03-03T05:51:54.597Z,78.80
2019-03-03T05:53:26.715Z,78.80
2019-03-03T05:54:58.960Z,78.90
2019-03-03T05:56:31.197Z,78.90
2019-03-03T05:58:03.489Z,79.00
2019-03-03T05:59:35.783Z,79.00
2019-03-03T06:01:08.021Z,79.20
2019-03-03T06:02:40.307Z,79.30
2019-03-03T06:04:12.592Z,79.30
2019-03-03T06:05:44.948Z,79.30
2019-03-03T06:07:17.270Z,79.30
2019-03-03T06:08:49.486Z,79.20
2019-03-03T06:10:21.787Z,79.60
2019-03-03T06:11:54.021Z,79.60
2019-03-03T06:13:26.258Z,79.30
2019-03-03T06:14:58.477Z,79.50
2019-03-03T06:16:30.753Z,80.20
2019-03-03T06:18:03.057Z,79.70
2019-03-03T06:19:35.252Z,79.60
2019-03-03T06:21:07.556Z,79.50
2019-03-03T06:22:39.737Z,79.40
2019-03-03T06:24:11.864Z,79.90
2019-03-03T06:25:43.992Z,80.00
2019-03-03T06:27:16.286Z,79.80
2019-03-03T06:28:48.424Z,79.70
2019-03-03T06:30:20.744Z,79.90
2019-03-03T06:31:52.953Z,80.40
2019-03-03T06:33:25.197Z,79.80
2019-03-03T06:34:57.455Z,79.80
2019-03-03T06:36:29.660Z,79.60
2019-03-03T06:38:01.994Z,79.60
2019-03-03T06:39:34.254Z,79.90
2019-03-03T06:41:06.507Z,79.70
2019-03-03T06:42:38.631Z,79.70
2019-03-03T06:44:10.863Z,79.70
2019-03-03T06:45:43.080Z,80.30
2019-03-03T06:47:15.328Z,79.60
2019-03-03T06:48:47.637Z,79.60
2019-03-03T06:50:19.751Z,79.70
2019-03-03T06:51:52.039Z,79.70
2019-03-03T06:53:24.268Z,79.50
2019-03-03T06:54:56.582Z,79.70
2019-03-03T06:56:28.831Z,79.60
2019-03-03T06:58:01.068Z,79.40
2019-03-03T06:59:33.343Z,79.50
2019-03-03T07:01:05.606Z,79.50
2019-03-03T07:02:37.928Z,79.30
2019-03-03T07:04:10.147Z,79.20
2019-03-03T07:05:42.375Z,80.00
2019-03-03T07:07:14.623Z,79.20
2019-03-03T07:08:46.860Z,79.20
2019-03-03T07:10:19.181Z,79.20
2019-03-03T07:11:51.317Z,79.20
2019-03-03T07:13:23.652Z,79.20
2019-03-03T07:14:55.946Z,79.00
2019-03-03T07:16:28.194Z,79.20
2019-03-03T07:18:00.484Z,79.20
2019-03-03T07:19:32.792Z,79.30
2019-03-03T07:21:05.867Z,79.10
2019-03-03T07:22:38.183Z,79.10
2019-03-03T07:24:10.452Z,79.30
2019-03-03T07:25:42.703Z,79.40
2019-03-03T07:27:14.912Z,79.30
2019-03-03T07:28:47.900Z,79.30
2019-03-03T07:30:20.172Z,79.30
2019-03-03T07:31:52.502Z,79.20
2019-03-03T07:33:34.931Z,79.00
2019-03-03T07:35:07.275Z,79.30
2019-03-03T07:36:39.518Z,79.30
2019-03-03T07:38:11.738Z,79.20
2019-03-03T07:39:44.011Z,79.00
2019-03-03T07:41:16.246Z,79.00
2019-03-03T07:42:48.496Z,79.10
2019-03-03T07:44:20.736Z,79.20
2019-03-03T07:45:52.981Z,78.90
2019-03-03T07:47:25.254Z,79.00
2019-03-03T07:48:57.521Z,79.00
2019-03-03T07:50:29.778Z,78.90
2019-03-03T07:52:02.219Z,78.90
2019-03-03T07:53:34.601Z,78.90
2019-03-03T07:55:07.034Z,78.90
2019-03-03T07:56:39.286Z,78.90
2019-03-03T07:58:11.618Z,78.90
2019-03-03T07:59:44.027Z,78.90
2019-03-03T08:01:16.323Z,78.80
2019-03-03T08:02:48.434Z,78.70
2019-03-03T08:04:20.704Z,78.90
2019-03-03T08:05:53.017Z,78.90
2019-03-03T08:07:25.268Z,78.90
2019-03-03T08:08:57.542Z,78.90
2019-03-03T08:10:29.833Z,78.90
2019-03-03T08:12:02.101Z,79.00
2019-03-03T08:13:34.381Z,78.90
2019-03-03T08:15:06.675Z,78.90
2019-03-03T08:16:38.917Z,78.90
2019-03-03T08:18:11.236Z,78.90
2019-03-03T08:19:43.511Z,78.80
2019-03-03T08:21:15.819Z,79.00
2019-03-03T08:22:48.094Z,78.90
2019-03-03T08:24:20.509Z,78.80
2019-03-03T08:25:52.792Z,78.90
2019-03-03T08:27:25.122Z,79.00
2019-03-03T08:28:57.301Z,78.70
2019-03-03T08:30:31.002Z,78.70
2019-03-03T08:32:03.424Z,79.70
2019-03-03T08:33:35.679Z,78.90
2019-03-03T08:35:09.580Z,78.80
2019-03-03T08:36:41.931Z,79.00
2019-03-03T08:38:14.122Z,78.70
2019-03-03T08:39:46.268Z,78.60
2019-03-03T08:41:18.634Z,78.50
2019-03-03T08:43:14.331Z,78.60
2019-03-03T08:45:09.154Z,78.50
2019-03-03T08:47:01.267Z,78.40
2019-03-03T08:48:41.005Z,78.40
2019-03-03T08:50:18.373Z,78.40
2019-03-03T08:52:18.935Z,78.30
2019-03-03T08:54:00.813Z,78.30
2019-03-03T08:55:55.554Z,78.40
2019-03-03T08:58:05.439Z,78.60
2019-03-03T08:59:46.721Z,78.60
2019-03-03T09:01:43.051Z,78.60
2019-03-03T09:03:34.815Z,78.60
2019-03-03T09:05:21.765Z,78.40
2019-03-03T09:07:15.796Z,78.60
2019-03-03T09:09:06.319Z,78.50
2019-03-03T09:11:15.064Z,78.60
2019-03-03T09:13:10.737Z,78.50
2019-03-03T09:15:08.323Z,78.70
2019-03-03T09:17:05.792Z,78.20
2019-03-03T09:18:57.571Z,78.20
2019-03-03T09:21:01.669Z,78.60
2019-03-03T09:22:51.972Z,78.30
2019-03-03T09:24:46.831Z,78.20
2019-03-03T09:26:41.551Z,78.30
2019-03-03T09:28:35.172Z,78.00
2019-03-03T09:30:26.723Z,78.10
2019-03-03T09:32:18.629Z,78.10
2019-03-03T09:34:27.310Z,78.00
2019-03-03T09:36:37.263Z,78.10
2019-03-03T09:38:31.790Z,77.80
2019-03-03T09:40:25.938Z,77.50
2019-03-03T09:42:07.423Z,77.50
2019-03-03T09:43:58.147Z,77.60
2019-03-03T09:45:56.202Z,77.70
2019-03-03T09:47:40.024Z,77.50
2019-03-03T09:49:19.457Z,77.60
2019-03-03T09:51:29.466Z,77.50
2019-03-03T09:53:19.797Z,77.50
2019-03-03T09:55:05.697Z,77.30
2019-03-03T09:57:00.011Z,77.20
2019-03-03T09:58:59.537Z,77.10
2019-03-03T10:00:47.690Z,76.90
2019-03-03T10:02:45.041Z,77.00
2019-03-03T10:04:32.273Z,76.90
2019-03-03T10:06:26.538Z,76.80
2019-03-03T10:08:16.817Z,76.60
2019-03-03T10:09:52.203Z,76.60
2019-03-03T10:11:42.299Z,76.80
2019-03-03T10:13:37.108Z,76.50
2019-03-03T10:15:27.008Z,76.40
2019-03-03T10:17:18.805Z,76.00
2019-03-03T10:19:15.359Z,76.00
2019-03-03T10:21:18.758Z,76.20
2019-03-03T10:23:04.980Z,76.00
2019-03-03T10:24:48.982Z,75.80
2019-03-03T10:26:46.341Z,75.60
2019-03-03T10:28:38.207Z,75.60
2019-03-03T10:30:24.240Z,75.60
2019-03-03T10:32:18.145Z,75.50
2019-03-03T10:33:59.876Z,75.30
2019-03-03T10:36:03.818Z,75.10
2019-03-03T10:37:44.103Z,75.10
2019-03-03T10:39:23.679Z,75.10
2019-03-03T10:41:05.162Z,75.10
2019-03-03T10:43:05.951Z,75.20
2019-03-03T10:44:57.731Z,75.20
2019-03-03T10:46:53.465Z,75.10
2019-03-03T10:49:00.093Z,75.00
2019-03-03T10:50:54.654Z,74.90
2019-03-03T10:52:33.742Z,75.00
2019-03-03T10:54:34.171Z,75.00
2019-03-03T10:56:16.254Z,74.90
2019-03-03T10:58:13.657Z,74.50
2019-03-03T11:00:23.471Z,74.70
2019-03-03T11:02:15.366Z,74.90
2019-03-03T11:04:03.170Z,74.80
2019-03-03T11:06:04.028Z,75.10
2019-03-03T11:08:05.129Z,75.00
2019-03-03T11:10:05.716Z,75.10
2019-03-03T11:12:09.686Z,74.80
2019-03-03T11:14:01.470Z,74.80
2019-03-03T11:15:48.880Z,74.90
2019-03-03T11:17:56.253Z,74.80
2019-03-03T11:19:53.980Z,75.00
2019-03-03T11:21:55.418Z,75.10
2019-03-03T11:23:35.917Z,75.20
2019-03-03T11:25:29.461Z,75.10
2019-03-03T11:27:36.707Z,74.80
2019-03-03T11:29:34.504Z,74.80
2019-03-03T11:31:26.273Z,74.80
2019-03-03T11:33:07.232Z,74.40
2019-03-03T11:34:48.599Z,74.60
2019-03-03T11:36:27.798Z,74.50
2019-03-03T11:38:16.170Z,74.10
2019-03-03T11:40:16.863Z,74.10
2019-03-03T11:42:02.127Z,73.90
2019-03-03T11:43:50.692Z,73.50
2019-03-03T11:45:45.595Z,73.90
2019-03-03T11:47:40.141Z,74.20
2019-03-03T11:49:44.246Z,74.20
2019-03-03T11:51:26.484Z,73.80
2019-03-03T11:53:18.218Z,73.40
2019-03-03T11:55:13.013Z,73.50
2019-03-03T11:56:57.619Z,73.50
2019-03-03T11:58:49.384Z,72.80
2019-03-03T12:00:37.409Z,73.30
2019-03-03T12:02:23.190Z,73.60
2019-03-03T12:04:17.501Z,73.80
2019-03-03T12:06:07.998Z,73.10
2019-03-03T12:07:59.766Z,73.10
2019-03-03T12:10:00.786Z,73.10
2019-03-03T12:11:55.371Z,73.00
2019-03-03T12:14:05.393Z,72.80
2019-03-03T12:15:46.764Z,73.10
2019-03-03T12:17:34.545Z,72.70
2019-03-03T12:19:18.360Z,72.80
2019-03-03T12:20:57.690Z,72.60
2019-03-03T12:23:04.627Z,72.30
2019-03-03T12:25:08.643Z,72.80
2019-03-03T12:27:03.182Z,73.00
2019-03-03T12:28:53.765Z,73.00
2019-03-03T12:30:31.937Z,72.70
2019-03-03T12:32:38.840Z,72.40
2019-03-03T12:34:42.705Z,72.30
2019-03-03T12:36:33.078Z,71.80
2019-03-03T12:38:23.774Z,72.60
2019-03-03T12:40:12.827Z,72.10
2019-03-03T12:42:16.878Z,71.70
2019-03-03T12:44:11.406Z,71.70
2019-03-03T12:46:04.164Z,72.40
2019-03-03T12:47:46.861Z,73.10
2019-03-03T12:49:41.334Z,72.80
2019-03-03T12:51:36.430Z,73.10
2019-03-03T12:53:18.102Z,72.70
2019-03-03T12:55:16.188Z,72.10
2019-03-03T12:56:54.518Z,72.50
2019-03-03T12:58:58.397Z,72.10
2019-03-03T13:00:48.732Z,71.60
2019-03-03T13:02:38.851Z,71.80
2019-03-03T13:04:29.460Z,72.10
2019-03-03T13:06:30.468Z,72.40
2019-03-03T13:08:24.585Z,72.30
2019-03-03T13:10:05.915Z,71.40
2019-03-03T13:12:03.296Z,71.90
2019-03-03T13:13:49.899Z,72.10
2019-03-03T13:15:53.704Z,72.00
2019-03-03T13:17:51.287Z,72.10
2019-03-03T13:19:54.978Z,71.50
2019-03-03T13:21:58.815Z,72.50
2019-03-03T13:23:56.606Z,71.80
2019-03-03T13:26:00.732Z,72.30
2019-03-03T13:27:52.510Z,73.00
2019-03-03T13:29:42.640Z,72.00
2019-03-03T13:31:24.793Z,72.70
2019-03-03T13:33:15.361Z,72.30
2019-03-03T13:35:05.526Z,73.40
2019-03-03T13:36:43.600Z,72.00
2019-03-03T13:38:38.166Z,72.00
2019-03-03T13:40:32.965Z,71.50
2019-03-03T13:42:17.934Z,71.50
2019-03-03T13:43:53.605Z,71.70
2019-03-03T13:45:31.402Z,71.80
2019-03-03T13:47:03.752Z,71.80
2019-03-03T13:48:36.028Z,71.90
2019-03-03T13:50:10.953Z,71.90
2019-03-03T13:51:43.313Z,72.00
2019-03-03T13:53:15.734Z,72.30
2019-03-03T13:54:47.990Z,72.50
2019-03-03T13:56:20.167Z,72.40
2019-03-03T13:57:52.442Z,72.50
2019-03-03T13:59:24.592Z,72.60
2019-03-03T14:00:57.031Z,72.70
2019-03-03T14:02:29.153Z,72.70
2019-03-03T14:04:01.393Z,72.80
2019-03-03T14:05:33.700Z,72.70
2019-03-03T14:07:05.927Z,72.70
2019-03-03T14:08:38.224Z,72.80
2019-03-03T14:10:10.449Z,73.70
2019-03-03T14:11:42.739Z,73.00
2019-03-03T14:13:15.062Z,72.70
2019-03-03T14:14:47.388Z,73.20
2019-03-03T14:16:19.653Z,73.30
2019-03-03T14:17:52.013Z,73.20
2019-03-03T14:19:24.286Z,73.30
2019-03-03T14:20:56.576Z,73.30
2019-03-03T14:22:29.057Z,73.40
2019-03-03T14:24:01.501Z,73.40
2019-03-03T14:25:33.795Z,73.50
2019-03-03T14:27:10.575Z,73.40
2019-03-03T14:28:40.236Z,73.30
2019-03-03T14:30:14.966Z,73.40
2019-03-03T14:31:47.184Z,73.40
2019-03-03T14:33:19.536Z,73.50
2019-03-03T14:34:51.698Z,73.40
2019-03-03T14:36:24.028Z,73.40
2019-03-03T14:37:56.195Z,73.30
2019-03-03T14:39:28.312Z,73.40
2019-03-03T14:41:00.450Z,73.60
2019-03-03T14:42:32.679Z,73.60
2019-03-03T14:44:04.978Z,73.60
2019-03-03T14:45:37.322Z,73.60
2019-03-03T14:47:09.636Z,73.60
2019-03-03T14:48:41.894Z,73.80
2019-03-03T14:50:15.307Z,73.90
2019-03-03T14:51:47.622Z,74.10
2019-03-03T14:53:19.939Z,73.90
2019-03-03T14:54:52.195Z,74.10
2019-03-03T14:56:24.494Z,74.10
2019-03-03T14:57:56.774Z,74.70
2019-03-03T14:59:29.018Z,74.10
2019-03-03T15:01:01.276Z,74.40
2019-03-03T15:02:33.551Z,74.30
2019-03-03T15:04:05.854Z,74.40
2019-03-03T15:05:38.126Z,74.40
2019-03-03T15:07:10.364Z,74.50
2019-03-03T15:08:42.634Z,74.60
2019-03-03T15:10:14.999Z,74.70
2019-03-03T15:11:47.368Z,74.70
2019-03-03T15:13:19.921Z,74.60
2019-03-03T15:14:52.274Z,75.20
2019-03-03T15:16:24.533Z,74.70
2019-03-03T15:17:56.859Z,74.70
2019-03-03T15:19:29.166Z,74.70
2019-03-03T15:21:01.413Z,74.90
2019-03-03T15:22:33.753Z,75.00
2019-03-03T15:24:06.117Z,74.80
2019-03-03T15:25:38.241Z,74.80
2019-03-03T15:27:10.518Z,75.00
2019-03-03T15:28:42.839Z,74.90
2019-03-03T15:30:16.852Z,74.80
2019-03-03T15:31:49.171Z,74.80
2019-03-03T15:33:21.437Z,74.80
2019-03-03T15:34:53.661Z,74.70
2019-03-03T15:36:25.885Z,74.80
2019-03-03T15:37:58.190Z,74.70
2019-03-03T15:39:30.375Z,74.80
2019-03-03T15:41:05.481Z,74.70
2019-03-03T15:42:37.899Z,74.70
2019-03-03T15:44:10.267Z,74.60
2019-03-03T15:45:42.578Z,74.70
2019-03-03T15:47:14.861Z,74.70
2019-03-03T15:48:47.216Z,74.50
2019-03-03T15:50:20.085Z,74.60
2019-03-03T15:51:52.398Z,74.70
2019-03-03T15:53:24.705Z,74.70
2019-03-03T15:54:56.963Z,74.50
2019-03-03T15:56:29.606Z,74.50
2019-03-03T15:58:01.733Z,74.40
2019-03-03T15:59:34.170Z,74.40
2019-03-03T16:01:12.802Z,74.50
2019-03-03T16:02:45.098Z,74.30
2019-03-03T16:04:17.385Z,74.30
2019-03-03T16:05:49.904Z,74.20
2019-03-03T16:07:22.240Z,74.10
2019-03-03T16:08:54.477Z,73.90
2019-03-03T16:10:26.582Z,74.00
2019-03-03T16:11:58.871Z,73.80
2019-03-03T16:13:31.187Z,73.90
2019-03-03T16:15:05.347Z,74.00
2019-03-03T16:16:37.684Z,74.10
2019-03-03T16:18:10.014Z,74.10
2019-03-03T16:19:42.308Z,73.90
2019-03-03T16:21:14.606Z,74.80
2019-03-03T16:22:46.911Z,73.90
2019-03-03T16:24:19.234Z,73.90
2019-03-03T16:25:51.533Z,73.90
2019-03-03T16:27:23.804Z,73.90
2019-03-03T16:28:56.181Z,74.00
2019-03-03T16:30:28.476Z,73.90
2019-03-03T16:32:00.698Z,73.90
2019-03-03T16:33:32.958Z,73.80
2019-03-03T16:35:05.346Z,73.80
2019-03-03T16:36:37.655Z,73.90
2019-03-03T16:38:09.844Z,73.80
2019-03-03T16:39:42.223Z,73.70
2019-03-03T16:41:14.500Z,73.90
2019-03-03T16:42:46.796Z,73.80
2019-03-03T16:44:19.057Z,73.90
2019-03-03T16:45:51.382Z,73.90
2019-03-03T16:47:23.604Z,73.80
2019-03-03T16:48:55.900Z,73.90
2019-03-03T16:50:28.065Z,74.00
2019-03-03T16:52:00.333Z,73.90
2019-03-03T16:53:32.530Z,74.00
2019-03-03T16:55:04.888Z,74.10
2019-03-03T16:56:37.274Z,74.00
2019-03-03T16:58:09.573Z,74.00
2019-03-03T16:59:41.838Z,74.00
2019-03-03T17:01:14.108Z,74.00
2019-03-03T17:02:46.383Z,74.00
2019-03-03T17:04:18.705Z,74.00
2019-03-03T17:05:50.821Z,74.00
2019-03-03T17:07:23.098Z,74.10
2019-03-03T17:08:55.366Z,74.00
2019-03-03T17:10:27.649Z,73.80
2019-03-03T17:11:59.807Z,73.80
2019-03-03T17:13:32.022Z,74.00
2019-03-03T17:15:05.346Z,74.80
2019-03-03T17:16:37.696Z,73.80
2019-03-03T17:18:10.084Z,74.60
2019-03-03T17:19:42.358Z,73.80
2019-03-03T17:21:14.688Z,73.90
2019-03-03T17:22:46.952Z,73.80
2019-03-03T17:24:19.234Z,73.70
2019-03-03T17:25:51.519Z,73.80
2019-03-03T17:27:23.647Z,73.80
2019-03-03T17:28:55.905Z,73.70
2019-03-03T17:30:28.167Z,73.50
2019-03-03T17:32:00.320Z,73.60
2019-03-03T17:33:32.671Z,73.50
2019-03-03T17:35:05.231Z,73.40
2019-03-03T17:36:37.504Z,73.40
2019-03-03T17:38:09.779Z,73.50
2019-03-03T17:39:42.069Z,73.50
2019-03-03T17:41:14.479Z,73.50
2019-03-03T17:42:46.854Z,73.60
2019-03-03T17:44:19.033Z,73.40
2019-03-03T17:45:51.313Z,73.30
2019-03-03T17:47:23.428Z,73.30
2019-03-03T17:48:55.758Z,73.30
2019-03-03T17:50:28.019Z,73.20
2019-03-03T17:52:00.265Z,73.20
2019-03-03T17:53:32.507Z,73.40
2019-03-03T17:55:04.890Z,73.40
2019-03-03T17:56:37.286Z,73.20
2019-03-03T17:58:10.839Z,73.20
2019-03-03T17:59:43.181Z,73.20
2019-03-03T18:01:15.392Z,73.20
2019-03-03T18:02:47.795Z,73.20
2019-03-03T18:04:20.111Z,73.10
2019-03-03T18:05:52.391Z,73.20
2019-03-03T18:07:24.708Z,73.10
2019-03-03T18:08:57.012Z,73.10
2019-03-03T18:10:29.590Z,73.10
2019-03-03T18:12:02.011Z,73.10
2019-03-03T18:13:34.201Z,73.80
2019-03-03T18:15:06.735Z,72.90
2019-03-03T18:16:39.022Z,73.00
2019-03-03T18:18:11.316Z,73.00
2019-03-03T18:19:43.636Z,73.20
2019-03-03T18:21:16.683Z,73.10
2019-03-03T18:22:49.498Z,72.90
2019-03-03T18:24:21.903Z,73.00
2019-03-03T18:25:54.376Z,72.90
2019-03-03T18:27:26.778Z,72.80
2019-03-03T18:28:59.526Z,72.90
2019-03-03T18:30:31.936Z,72.90
2019-03-03T18:32:04.098Z,72.90
2019-03-03T18:33:36.305Z,72.90
2019-03-03T18:35:08.711Z,72.90
2019-03-03T18:36:41.020Z,73.00
2019-03-03T18:38:13.161Z,72.90
2019-03-03T18:39:45.382Z,72.90
2019-03-03T18:41:17.696Z,73.00
2019-03-03T18:42:50.011Z,73.80
2019-03-03T18:44:22.260Z,73.10
2019-03-03T18:45:54.496Z,73.10
2019-03-03T18:47:26.753Z,73.20
2019-03-03T18:48:59.009Z,73.20
2019-03-03T18:50:31.163Z,73.10
2019-03-03T18:52:03.393Z,73.20
2019-03-03T18:53:35.739Z,73.30
2019-03-03T18:55:08.297Z,73.20
2019-03-03T18:56:40.574Z,73.20
2019-03-03T18:58:12.809Z,73.20
2019-03-03T18:59:45.062Z,73.30
2019-03-03T19:01:17.393Z,73.20
2019-03-03T19:02:49.858Z,73.40
2019-03-03T19:04:22.157Z,73.40
2019-03-03T19:05:56.077Z,73.40
2019-03-03T19:07:28.497Z,73.40
2019-03-03T19:09:00.732Z,73.40
2019-03-03T19:10:33.096Z,73.40
2019-03-03T19:12:05.376Z,73.50
2019-03-03T19:13:37.524Z,73.40
2019-03-03T19:15:12.100Z,73.60
2019-03-03T19:16:44.387Z,73.50
2019-03-03T19:18:16.618Z,73.40
2019-03-03T19:19:48.921Z,74.20
2019-03-03T19:21:21.256Z,73.40
2019-03-03T19:22:53.642Z,73.50
2019-03-03T19:24:25.909Z,73.50
2019-03-03T19:25:58.230Z,73.80
2019-03-03T19:27:30.401Z,73.50
2019-03-03T19:29:02.617Z,73.50
2019-03-03T19:30:34.889Z,73.50
2019-03-03T19:32:07.133Z,73.50
2019-03-03T19:33:42.899Z,73.50
2019-03-03T19:35:15.193Z,73.60
2019-03-03T19:36:47.729Z,73.50
2019-03-03T19:38:20.041Z,73.50
2019-03-03T19:39:52.363Z,73.60
2019-03-03T19:41:24.626Z,73.60
2019-03-03T19:42:57.286Z,73.60
2019-03-03T19:44:29.528Z,73.70
2019-03-03T19:46:02.120Z,73.70
2019-03-03T19:47:34.421Z,73.70
2019-03-03T19:49:06.615Z,73.60
2019-03-03T19:50:38.905Z,73.60
2019-03-03T19:52:11.028Z,73.60
2019-03-03T19:53:43.295Z,73.60
2019-03-03T19:55:16.108Z,73.80
2019-03-03T19:56:48.374Z,73.80
2019-03-03T19:58:20.732Z,73.80
2019-03-03T19:59:52.995Z,73.80
2019-03-03T20:01:25.364Z,73.80
2019-03-03T20:02:57.730Z,73.90
2019-03-03T20:04:30.005Z,73.80
2019-03-03T20:06:02.331Z,73.80
2019-03-03T20:07:34.646Z,73.90
2019-03-03T20:09:07.014Z,73.90
2019-03-03T20:10:39.355Z,73.90
2019-03-03T20:12:11.710Z,73.90
2019-03-03T20:13:43.979Z,73.90
2019-03-03T20:15:16.345Z,73.90
2019-03-03T20:16:48.656Z,73.90
2019-03-03T20:18:21.012Z,73.80
2019-03-03T20:19:53.299Z,74.10
2019-03-03T20:21:25.482Z,74.00
2019-03-03T20:22:57.760Z,74.10
2019-03-03T20:24:30.051Z,74.00
2019-03-03T20:26:02.518Z,74.00
2019-03-03T20:27:34.984Z,74.00
2019-03-03T20:29:07.289Z,73.90
2019-03-03T20:30:39.923Z,73.90
2019-03-03T20:32:12.246Z,73.90
2019-03-03T20:33:44.473Z,73.80
2019-03-03T20:35:16.729Z,73.80
2019-03-03T20:36:49.027Z,74.00
2019-03-03T20:38:21.347Z,73.90
2019-03-03T20:39:53.551Z,73.80
2019-03-03T20:41:25.849Z,73.80
2019-03-03T20:42:58.148Z,73.80
2019-03-03T20:44:30.451Z,73.70
2019-03-03T20:46:02.555Z,73.80
2019-03-03T20:47:34.857Z,73.80
2019-03-03T20:49:07.144Z,73.70
2019-03-03T20:50:39.436Z,73.60
2019-03-03T20:52:11.699Z,73.70
2019-03-03T20:53:44.027Z,73.60
2019-03-03T20:55:17.514Z,73.60
2019-03-03T20:56:49.892Z,73.60
2019-03-03T20:58:22.071Z,73.70
2019-03-03T20:59:54.370Z,73.60
2019-03-03T21:01:26.663Z,73.60
2019-03-03T21:02:58.909Z,73.60
2019-03-03T21:04:31.191Z,73.60
2019-03-03T21:06:03.532Z,73.50
2019-03-03T21:07:35.895Z,73.40
2019-03-03T21:09:08.959Z,73.40
2019-03-03T21:10:42.293Z,73.40
2019-03-03T21:12:14.633Z,73.40
2019-03-03T21:13:47.069Z,73.40
2019-03-03T21:15:19.483Z,73.40